Time;durP1;ratioP1;P1;durP2;ratioP2;P2;SDS_P1;SDS_P2;PMS_P1;PMS_P2;Temp;Humidity;BMP_temperature;BMP_pressure;BME280_temperature;BME280_humidity;BME280_pressure;Samples;Min_cycle;Max_cycle;Signal;HPM_P1;HPM_P2
2024/03/16 00:01:49;;;;;;;12.57;11.87;;;11.10;99.90;;;;;;4809804;29;20467;-39
2024/03/16 00:04:14;;;;;;;12.40;11.70;;;11.00;99.90;;;;;;4802462;29;21050;-40
2024/03/16 00:06:40;;;;;;;12.43;11.70;;;11.00;99.90;;;;;;4808477;29;20223;-43
2024/03/16 00:09:06;;;;;;;12.80;11.90;;;11.00;1.00;;;;;;4807982;29;20186;-41
2024/03/16 00:11:31;;;;;;;11.90;11.20;;;10.90;1.00;;;;;;4796624;29;20289;-44
2024/03/16 00:14:00;;;;;;;12.20;11.50;;;10.90;1.00;;;;;;4809293;29;20491;-39
2024/03/16 00:16:26;;;;;;;11.63;10.93;;;10.90;1.00;;;;;;4806776;29;20202;-40
2024/03/16 00:18:53;;;;;;;11.90;11.20;;;10.80;1.00;;;;;;4806217;29;20841;-39
2024/03/16 00:21:19;;;;;;;12.50;11.70;;;10.80;1.00;;;;;;4810607;29;20446;-44
2024/03/16 00:23:44;;;;;;;12.33;11.63;;;10.70;1.00;;;;;;4812050;29;20428;-41
2024/03/16 00:26:11;;;;;;;12.10;11.40;;;10.70;1.00;;;;;;4813035;29;20634;-39
2024/03/16 00:28:37;;;;;;;11.93;11.33;;;10.70;1.00;;;;;;4811610;29;20190;-39
2024/03/16 00:31:03;;;;;;;12.20;11.40;;;10.70;1.00;;;;;;4784942;29;20449;-44
2024/03/16 00:33:28;;;;;;;11.63;10.93;;;10.60;1.00;;;;;;4808310;29;20194;-44
2024/03/16 00:35:54;;;;;;;11.80;11.20;;;10.60;1.00;;;;;;4803667;29;21002;-38
2024/03/16 00:38:20;;;;;;;12.00;11.30;;;10.50;1.00;;;;;;4810114;29;20209;-42
2024/03/16 00:40:45;;;;;;;12.30;11.60;;;10.50;1.00;;;;;;4810254;29;20197;-41
2024/03/16 00:43:11;;;;;;;11.87;11.17;;;10.50;1.00;;;;;;4800939;29;20251;-41
2024/03/16 00:45:36;;;;;;;12.20;11.50;;;10.50;1.00;;;;;;4805351;29;20297;-45
2024/03/16 00:48:04;;;;;;;12.00;11.40;;;10.50;1.00;;;;;;4802697;29;20202;-43
2024/03/16 00:50:31;;;;;;;12.00;11.20;;;10.40;1.00;;;;;;4807153;29;20190;-41
2024/03/16 00:52:57;;;;;;;12.60;11.80;;;10.40;1.00;;;;;;4802267;29;20428;-39
2024/03/16 00:55:23;;;;;;;12.40;11.70;;;10.60;1.00;;;;;;4801817;29;21045;-38
2024/03/16 00:57:48;;;;;;;12.47;11.73;;;10.60;1.00;;;;;;4807216;29;20431;-40
2024/03/16 01:00:14;;;;;;;12.50;11.70;;;10.60;1.00;;;;;;4805667;29;20277;-42
2024/03/16 01:02:41;;;;;;;11.87;11.10;;;10.60;1.00;;;;;;4798299;29;20197;-45
2024/03/16 01:05:06;;;;;;;11.43;10.63;;;10.60;1.00;;;;;;4811417;29;20213;-43
2024/03/16 01:07:32;;;;;;;12.27;11.67;;;10.50;1.00;;;;;;4801782;29;20652;-41
2024/03/16 01:09:58;;;;;;;11.27;10.67;;;10.40;1.00;;;;;;4806156;29;20191;-44
2024/03/16 01:12:23;;;;;;;12.30;11.50;;;10.40;1.00;;;;;;4798188;29;20550;-40
2024/03/16 01:14:49;;;;;;;11.80;11.10;;;10.40;1.00;;;;;;4807732;29;20239;-46
2024/03/16 01:17:15;;;;;;;11.53;10.80;;;10.30;1.00;;;;;;4806442;29;20232;-45
2024/03/16 01:19:41;;;;;;;11.70;10.97;;;10.30;1.00;;;;;;4811144;29;20182;-44
2024/03/16 01:22:07;;;;;;;11.77;11.07;;;10.20;1.00;;;;;;4802540;29;20895;-41
2024/03/16 01:24:33;;;;;;;12.10;11.27;;;10.20;1.00;;;;;;4810512;29;20439;-40
2024/03/16 01:26:59;;;;;;;11.57;10.93;;;10.10;1.00;;;;;;4806313;29;20604;-46
2024/03/16 01:29:25;;;;;;;11.93;11.23;;;10.10;1.00;;;;;;4804212;29;20193;-41
2024/03/16 01:31:50;;;;;;;12.03;11.40;;;10.00;1.00;;;;;;4804650;29;21026;-51
2024/03/16 01:34:16;;;;;;;12.00;11.30;;;10.00;1.00;;;;;;4811367;29;20194;-48
2024/03/16 01:36:41;;;;;;;12.20;11.40;;;10.00;1.00;;;;;;4796325;29;20287;-51
2024/03/16 01:39:11;;;;;;;12.70;11.80;;;10.00;1.00;;;;;;4803788;29;20194;-50
2024/03/16 01:41:37;;;;;;;12.17;11.37;;;10.00;1.00;;;;;;4808420;29;20197;-51
2024/03/16 01:44:12;;;;;;;12.50;11.80;;;10.00;1.00;;;;;;4806437;29;20605;-48
2024/03/16 01:46:39;;;;;;;12.70;11.90;;;10.00;1.00;;;;;;4801019;29;20701;-51
2024/03/16 01:49:07;;;;;;;12.93;12.03;;;10.00;1.00;;;;;;4811125;29;20522;-54
2024/03/16 01:51:35;;;;;;;11.67;10.97;;;10.00;1.00;;;;;;4801461;29;20443;-47
2024/03/16 01:54:01;;;;;;;12.30;11.60;;;10.00;1.00;;;;;;4811301;29;20587;-45
2024/03/16 01:56:27;;;;;;;12.13;11.33;;;10.00;1.00;;;;;;4803653;29;20890;-49
2024/03/16 01:58:52;;;;;;;11.40;10.70;;;10.00;1.00;;;;;;4811030;29;20924;-51
2024/03/16 02:01:18;;;;;;;11.70;11.00;;;9.90;1.00;;;;;;4805466;29;20304;-49
2024/03/16 02:03:46;;;;;;;11.87;11.23;;;9.90;1.00;;;;;;4803615;29;20608;-51
2024/03/16 02:06:12;;;;;;;11.80;11.10;;;9.90;1.00;;;;;;4806861;29;20210;-50
2024/03/16 02:08:38;;;;;;;11.73;10.93;;;9.80;1.00;;;;;;4811397;29;20903;-48
2024/03/16 02:11:04;;;;;;;12.30;11.40;;;9.80;1.00;;;;;;4807370;29;20438;-49
2024/03/16 02:13:30;;;;;;;12.13;11.43;;;9.80;1.00;;;;;;4793885;29;20458;-52
2024/03/16 02:15:56;;;;;;;12.50;11.40;;;9.70;1.00;;;;;;4809410;29;20197;-48
2024/03/16 02:18:21;;;;;;;11.50;10.90;;;9.70;1.00;;;;;;4808479;29;20908;-51
2024/03/16 02:20:47;;;;;;;12.73;11.80;;;9.70;1.00;;;;;;4805874;29;20209;-48
2024/03/16 02:23:15;;;;;;;12.27;11.57;;;9.70;1.00;;;;;;4802804;29;20201;-50
2024/03/16 02:25:42;;;;;;;11.97;11.10;;;9.60;1.00;;;;;;4796080;29;20209;-50
2024/03/16 02:28:08;;;;;;;12.00;11.30;;;9.50;1.00;;;;;;4802416;29;20434;-52
2024/03/16 02:30:34;;;;;;;11.10;10.50;;;9.50;1.00;;;;;;4810392;29;20435;-49
2024/03/16 02:33:00;;;;;;;11.20;10.50;;;9.40;1.00;;;;;;4804568;29;20427;-47
2024/03/16 02:35:26;;;;;;;11.20;10.63;;;9.40;1.00;;;;;;4810546;29;20431;-50
2024/03/16 02:37:52;;;;;;;11.60;10.93;;;9.30;1.70;;;;;;4803679;29;20276;-48
2024/03/16 02:40:18;;;;;;;11.77;11.07;;;9.40;14.40;;;;;;4801008;29;20466;-48
2024/03/16 02:42:43;;;;;;;12.30;11.50;;;9.30;17.50;;;;;;4805560;29;20199;-51
2024/03/16 02:45:10;;;;;;;11.70;10.90;;;9.40;26.80;;;;;;4815606;29;20711;-47
2024/03/16 02:47:36;;;;;;;11.60;10.80;;;9.50;37.00;;;;;;4804317;29;21270;-44
2024/03/16 02:50:03;;;;;;;11.67;10.87;;;9.80;20.30;;;;;;4815460;29;20431;-49
2024/03/16 02:52:31;;;;;;;11.73;11.03;;;9.80;1.60;;;;;;4810872;29;20190;-49
2024/03/16 02:54:57;;;;;;;11.53;10.83;;;9.80;1.00;;;;;;4816084;29;20575;-47
2024/03/16 02:57:24;;;;;;;11.67;10.93;;;9.80;1.00;;;;;;4806373;29;20475;-52
2024/03/16 02:59:49;;;;;;;11.57;10.77;;;9.90;1.00;;;;;;4799593;29;20568;-49
2024/03/16 03:02:16;;;;;;;11.40;10.60;;;9.90;1.00;;;;;;4807485;29;20489;-48
2024/03/16 03:04:41;;;;;;;11.00;10.40;;;9.90;1.00;;;;;;4816048;29;20197;-53
2024/03/16 03:07:07;;;;;;;11.10;10.40;;;9.90;1.00;;;;;;4808712;29;20530;-46
2024/03/16 03:09:33;;;;;;;11.70;11.10;;;9.90;1.00;;;;;;4811141;29;20209;-51
2024/03/16 03:11:59;;;;;;;11.50;10.83;;;9.90;1.00;;;;;;4810522;29;20189;-45
2024/03/16 03:14:24;;;;;;;11.23;10.50;;;9.90;1.00;;;;;;4810242;29;20487;-47
2024/03/16 03:16:50;;;;;;;11.80;11.20;;;9.90;1.00;;;;;;4787342;29;20234;-48
2024/03/16 03:19:16;;;;;;;11.63;11.00;;;9.80;1.00;;;;;;4813710;29;20197;-52
2024/03/16 03:21:41;;;;;;;11.63;10.93;;;9.80;1.00;;;;;;4814084;29;20191;-49
2024/03/16 03:24:07;;;;;;;11.33;10.63;;;9.70;1.00;;;;;;4815952;29;20202;-54
2024/03/16 03:26:33;;;;;;;11.50;10.80;;;9.70;1.00;;;;;;4810296;29;20243;-51
2024/03/16 03:28:59;;;;;;;11.90;11.20;;;9.60;1.00;;;;;;4816002;29;20204;-50
2024/03/16 03:31:26;;;;;;;11.17;10.57;;;9.60;1.00;;;;;;4816321;29;20430;-48
2024/03/16 03:33:51;;;;;;;11.70;11.00;;;9.50;1.00;;;;;;4804407;29;20483;-50
2024/03/16 03:36:17;;;;;;;12.40;11.50;;;9.50;1.00;;;;;;4816545;29;20431;-52
2024/03/16 03:38:43;;;;;;;11.93;11.23;;;9.40;1.00;;;;;;4801357;29;20523;-50
2024/03/16 03:41:09;;;;;;;11.43;10.73;;;9.40;1.00;;;;;;4812284;29;20204;-47
2024/03/16 03:43:37;;;;;;;11.60;10.90;;;9.30;1.00;;;;;;4806105;29;20810;-52
2024/03/16 03:46:04;;;;;;;11.70;11.03;;;9.20;1.00;;;;;;4804995;29;20325;-47
2024/03/16 03:48:40;;;;;;;11.90;11.20;;;9.20;1.00;;;;;;4809080;29;20789;-45
2024/03/16 03:51:06;;;;;;;14.57;13.30;;;9.10;3.50;;;;;;4799353;29;20472;-51
2024/03/16 03:53:32;;;;;;;12.87;12.07;;;9.10;15.50;;;;;;4806498;29;20530;-52
2024/03/16 03:55:59;;;;;;;12.20;11.30;;;9.00;26.40;;;;;;4813186;29;20198;-48
2024/03/16 03:58:25;;;;;;;12.73;11.87;;;8.90;36.70;;;;;;4808753;29;20734;-48
2024/03/16 04:00:51;;;;;;;12.63;11.83;;;8.90;42.20;;;;;;4812830;29;20431;-52
2024/03/16 04:03:17;;;;;;;12.03;11.33;;;8.90;53.70;;;;;;4806369;29;20434;-47
2024/03/16 04:05:43;;;;;;;12.50;11.60;;;8.90;71.10;;;;;;4812454;29;20680;-50
2024/03/16 04:08:09;;;;;;;11.90;11.23;;;8.90;88.10;;;;;;4806446;29;20279;-52
2024/03/16 04:10:35;;;;;;;12.93;12.13;;;8.90;91.90;;;;;;4810082;29;20451;-48
2024/03/16 04:13:01;;;;;;;12.60;11.80;;;8.90;91.20;;;;;;4807735;29;20729;-43
2024/03/16 04:15:27;;;;;;;12.07;11.30;;;8.90;92.50;;;;;;4801494;29;21206;-40
2024/03/16 04:17:53;;;;;;;12.43;11.57;;;8.90;91.60;;;;;;4808195;29;20443;-38
2024/03/16 04:20:19;;;;;;;11.47;10.77;;;9.00;91.70;;;;;;4807831;29;20719;-41
2024/03/16 04:22:45;;;;;;;11.53;10.87;;;9.00;89.80;;;;;;4800520;29;20198;-38
2024/03/16 04:25:14;;;;;;;12.13;11.33;;;8.90;86.20;;;;;;4799511;29;20424;-41
2024/03/16 04:27:41;;;;;;;11.80;11.10;;;8.90;82.40;;;;;;4800517;29;21067;-49
2024/03/16 04:30:08;;;;;;;12.67;11.87;;;8.90;83.00;;;;;;4812001;29;21320;-38
2024/03/16 04:32:35;;;;;;;12.43;11.63;;;8.80;86.30;;;;;;4812524;29;20427;-42
2024/03/16 04:35:01;;;;;;;12.70;11.80;;;8.80;98.80;;;;;;4807562;29;20474;-44
2024/03/16 04:37:26;;;;;;;12.37;11.63;;;8.80;99.90;;;;;;4807754;29;20443;-38
2024/03/16 04:39:53;;;;;;;12.20;11.40;;;8.70;99.90;;;;;;4809153;29;20597;-39
2024/03/16 04:42:19;;;;;;;11.50;10.80;;;8.70;99.90;;;;;;4809259;29;20195;-39
2024/03/16 04:44:45;;;;;;;11.97;11.27;;;8.60;99.90;;;;;;4809944;29;20439;-41
2024/03/16 04:47:11;;;;;;;11.83;11.03;;;8.70;99.90;;;;;;4812108;29;20474;-42
2024/03/16 04:49:36;;;;;;;12.57;11.57;;;8.70;99.90;;;;;;4804603;29;20199;-41
2024/03/16 04:52:02;;;;;;;11.60;10.83;;;8.70;99.90;;;;;;4812421;29;20202;-42
2024/03/16 04:54:28;;;;;;;12.37;11.27;;;8.70;99.90;;;;;;4802564;29;20186;-43
2024/03/16 04:56:53;;;;;;;11.83;11.10;;;8.70;99.90;;;;;;4803202;29;20435;-41
2024/03/16 04:59:19;;;;;;;11.43;10.70;;;8.70;99.90;;;;;;4802699;29;20190;-42
2024/03/16 05:01:45;;;;;;;11.50;10.80;;;8.80;99.90;;;;;;4805608;29;20606;-45
2024/03/16 05:04:12;;;;;;;11.80;11.10;;;8.80;99.90;;;;;;4798485;29;20553;-45
2024/03/16 05:06:40;;;;;;;12.53;11.63;;;8.80;99.90;;;;;;4800648;29;20475;-51
2024/03/16 05:09:06;;;;;;;13.20;12.27;;;8.80;99.90;;;;;;4806166;29;20527;-49
2024/03/16 05:11:32;;;;;;;12.37;11.50;;;8.80;99.90;;;;;;4811933;29;21009;-52
2024/03/16 05:13:59;;;;;;;12.90;11.83;;;8.70;99.90;;;;;;4805975;29;20468;-54
2024/03/16 05:16:25;;;;;;;11.67;11.03;;;8.80;99.90;;;;;;4807467;29;20427;-51
2024/03/16 05:18:50;;;;;;;12.40;11.50;;;8.70;99.90;;;;;;4808176;29;20420;-40
2024/03/16 05:21:16;;;;;;;12.10;11.40;;;8.80;99.90;;;;;;4811181;29;20624;-43
2024/03/16 05:23:45;;;;;;;12.97;12.00;;;8.80;99.90;;;;;;4810669;29;20265;-39
2024/03/16 05:26:11;;;;;;;11.80;11.10;;;8.90;99.90;;;;;;4812010;29;20212;-45
2024/03/16 05:28:38;;;;;;;12.03;11.20;;;8.90;99.90;;;;;;4805653;29;20426;-39
2024/03/16 05:31:04;;;;;;;12.57;11.87;;;9.00;99.90;;;;;;4801754;29;20828;-44
2024/03/16 05:33:30;;;;;;;12.00;11.10;;;9.00;99.90;;;;;;4807935;29;20562;-50
2024/03/16 05:35:57;;;;;;;11.23;10.57;;;9.10;99.90;;;;;;4793914;29;20432;-50
2024/03/16 05:38:23;;;;;;;12.07;11.30;;;9.20;99.90;;;;;;4809053;29;20821;-49
2024/03/16 05:40:49;;;;;;;12.70;11.90;;;9.30;99.90;;;;;;4802320;29;20435;-50
2024/03/16 05:43:15;;;;;;;12.50;11.80;;;9.30;99.90;;;;;;4802027;29;20660;-48
2024/03/16 05:45:40;;;;;;;12.17;11.37;;;9.30;81.60;;;;;;4802473;29;20238;-52
2024/03/16 05:48:07;;;;;;;12.63;11.63;;;9.40;67.50;;;;;;4806977;29;20204;-50
2024/03/16 05:50:33;;;;;;;12.60;11.80;;;9.40;59.60;;;;;;4798261;29;20947;-52
2024/03/16 05:52:59;;;;;;;12.00;11.30;;;9.40;48.00;;;;;;4807429;29;20438;-50
2024/03/16 05:55:25;;;;;;;11.97;11.20;;;9.40;38.50;;;;;;4805649;29;20455;-53
2024/03/16 05:57:51;;;;;;;11.40;10.80;;;9.40;36.70;;;;;;4807753;29;20200;-54
2024/03/16 06:00:18;;;;;;;12.00;11.20;;;9.40;35.40;;;;;;4790485;29;20194;-53
2024/03/16 06:02:44;;;;;;;12.90;11.90;;;9.30;37.90;;;;;;4799302;29;20190;-54
2024/03/16 06:05:09;;;;;;;11.77;10.87;;;9.30;28.30;;;;;;4810613;29;20615;-50
2024/03/16 06:07:35;;;;;;;12.70;11.80;;;9.40;31.50;;;;;;4811183;29;21057;-47
2024/03/16 06:10:01;;;;;;;11.47;10.87;;;9.30;32.60;;;;;;4802559;29;20186;-44
2024/03/16 06:12:30;;;;;;;11.30;10.60;;;9.40;99.90;;;;;;4808848;29;20189;-46
2024/03/16 06:14:57;;;;;;;12.07;11.17;;;9.40;99.90;;;;;;4795568;29;20258;-40
2024/03/16 06:17:23;;;;;;;11.30;10.60;;;9.50;99.90;;;;;;4806513;29;20438;-43
2024/03/16 06:19:50;;;;;;;12.27;11.50;;;9.60;99.90;;;;;;4795533;29;20448;-43
2024/03/16 06:22:16;;;;;;;12.23;11.53;;;9.60;1.00;;;;;;4807626;29;20966;-42
2024/03/16 06:24:43;;;;;;;12.00;11.30;;;9.70;1.00;;;;;;4808347;29;20438;-43
2024/03/16 06:27:10;;;;;;;12.20;11.50;;;9.70;1.00;;;;;;4807572;29;20471;-48
2024/03/16 06:29:36;;;;;;;11.93;11.17;;;9.70;1.00;;;;;;4798756;29;20446;-43
2024/03/16 06:32:08;;;;;;;11.67;11.00;;;9.80;1.00;;;;;;4797101;29;20803;-40
2024/03/16 06:34:34;;;;;;;11.80;11.10;;;9.80;1.00;;;;;;4809902;29;20247;-39
2024/03/16 06:37:01;;;;;;;11.37;10.47;;;9.80;1.00;;;;;;4802624;29;20434;-44
2024/03/16 06:39:27;;;;;;;12.13;11.43;;;9.90;1.00;;;;;;4805776;29;20190;-42
2024/03/16 06:41:53;;;;;;;11.93;11.23;;;9.90;1.00;;;;;;4807916;29;21022;-42
2024/03/16 06:44:18;;;;;;;11.97;11.17;;;10.00;1.00;;;;;;4793505;29;20501;-40
2024/03/16 06:46:44;;;;;;;11.60;10.90;;;10.20;1.00;;;;;;4797174;29;20566;-39
2024/03/16 06:49:10;;;;;;;11.87;11.17;;;10.20;1.00;;;;;;4810629;29;20565;-39
2024/03/16 06:51:36;;;;;;;12.03;11.33;;;10.30;1.00;;;;;;4797829;29;20904;-43
2024/03/16 06:54:03;;;;;;;11.60;10.90;;;10.40;1.00;;;;;;4807382;29;20197;-44
2024/03/16 06:56:29;;;;;;;11.70;10.97;;;10.50;1.00;;;;;;4803162;29;20249;-39
2024/03/16 06:58:55;;;;;;;12.20;11.50;;;10.60;1.00;;;;;;4808237;29;21323;-39
2024/03/16 07:01:24;;;;;;;11.70;10.90;;;10.70;1.00;;;;;;4803317;29;20200;-42
2024/03/16 07:03:49;;;;;;;11.80;11.10;;;10.90;1.00;;;;;;4802890;29;20523;-43
2024/03/16 07:06:15;;;;;;;11.33;10.73;;;11.10;1.00;;;;;;4806291;29;20475;-44
2024/03/16 07:08:40;;;;;;;12.37;11.47;;;11.20;1.00;;;;;;4802970;29;20195;-42
2024/03/16 07:11:06;;;;;;;11.90;11.20;;;11.30;99.90;;;;;;4807283;29;20193;-43
2024/03/16 07:13:32;;;;;;;11.97;11.27;;;11.50;99.90;;;;;;4806685;29;20294;-40
2024/03/16 07:15:58;;;;;;;11.30;10.67;;;11.70;99.90;;;;;;4804310;29;20713;-40
2024/03/16 07:18:24;;;;;;;11.60;10.93;;;11.80;1.00;;;;;;4808921;29;20427;-45
2024/03/16 07:20:49;;;;;;;11.37;10.77;;;12.00;99.90;;;;;;4804768;29;20198;-43
2024/03/16 07:23:15;;;;;;;11.43;10.73;;;12.10;72.30;;;;;;4797975;29;20201;-41
2024/03/16 07:25:43;;;;;;;11.30;10.50;;;12.20;37.90;;;;;;4785748;29;20198;-43
2024/03/16 07:28:09;;;;;;;10.90;10.30;;;12.30;99.90;;;;;;4799819;29;20425;-43
2024/03/16 07:30:35;;;;;;;11.10;10.47;;;12.40;99.90;;;;;;4801409;29;20788;-54
2024/03/16 07:33:03;;;;;;;11.00;10.50;;;12.50;1.00;;;;;;4800145;29;20278;-53
2024/03/16 07:35:28;;;;;;;11.30;10.60;;;12.70;1.00;;;;;;4808145;29;20182;-54
2024/03/16 07:37:55;;;;;;;10.60;10.00;;;12.80;99.90;;;;;;4800435;29;20440;-44
2024/03/16 07:40:21;;;;;;;10.63;10.13;;;12.90;99.90;;;;;;4803051;29;20205;-40
2024/03/16 07:42:48;;;;;;;9.33;8.93;;;13.00;1.00;;;;;;4799362;29;20480;-46
2024/03/16 07:45:15;;;;;;;8.97;8.47;;;13.00;1.00;;;;;;4814065;29;20822;-42
2024/03/16 07:47:40;;;;;;;10.37;9.77;;;13.00;99.90;;;;;;4808708;29;20477;-43
2024/03/16 07:50:07;;;;;;;9.87;9.27;;;13.00;99.90;;;;;;4809857;29;20800;-40
2024/03/16 07:52:33;;;;;;;10.43;9.93;;;13.20;99.90;;;;;;4804068;29;20235;-43
2024/03/16 07:55:00;;;;;;;9.90;9.20;;;13.20;99.90;;;;;;4806172;29;21388;-40
2024/03/16 07:57:27;;;;;;;11.00;10.40;;;13.30;99.90;;;;;;4810899;29;21003;-50
2024/03/16 07:59:53;;;;;;;10.00;9.40;;;13.30;99.90;;;;;;4813010;29;20442;-50
2024/03/16 08:02:19;;;;;;;10.67;9.93;;;13.30;99.90;;;;;;4806647;29;20428;-50
2024/03/16 08:04:45;;;;;;;10.03;9.43;;;13.20;99.90;;;;;;4800993;29;20442;-50
2024/03/16 08:07:11;;;;;;;10.60;9.90;;;13.20;99.90;;;;;;4804157;29;20479;-53
2024/03/16 08:09:37;;;;;;;9.93;9.43;;;13.30;99.90;;;;;;4811987;29;20512;-50
2024/03/16 08:12:03;;;;;;;11.80;11.00;;;13.30;99.90;;;;;;4790068;29;20445;-47
2024/03/16 08:14:34;;;;;;;12.67;11.60;;;13.30;99.90;;;;;;4812171;29;20242;-50
2024/03/16 08:17:07;;;;;;;10.83;10.23;;;13.30;99.90;;;;;;4807624;29;20857;-51
2024/03/16 08:19:32;;;;;;;10.93;10.33;;;13.40;99.90;;;;;;4812553;29;20424;-50
2024/03/16 08:21:58;;;;;;;11.20;10.60;;;13.40;99.90;;;;;;4807529;29;20450;-49
2024/03/16 08:24:24;;;;;;;10.57;10.07;;;13.40;99.90;;;;;;4808403;29;20269;-48
2024/03/16 08:26:49;;;;;;;9.77;9.30;;;13.50;99.90;;;;;;4786487;29;20222;-52
2024/03/16 08:29:15;;;;;;;9.80;9.30;;;13.60;99.90;;;;;;4812139;29;20520;-50
2024/03/16 08:31:40;;;;;;;12.50;11.60;;;13.70;99.90;;;;;;4811266;29;20204;-50
2024/03/16 08:34:09;;;;;;;12.70;12.00;;;13.50;99.90;;;;;;4804114;29;20290;-49
2024/03/16 08:36:34;;;;;;;12.00;11.30;;;13.30;1.00;;;;;;4802051;29;20386;-49
2024/03/16 08:39:03;;;;;;;11.57;10.97;;;13.10;99.90;;;;;;4810826;29;20455;-52
2024/03/16 08:41:28;;;;;;;11.53;10.70;;;13.10;1.00;;;;;;4812605;29;20222;-52
2024/03/16 08:43:54;;;;;;;10.70;10.10;;;13.20;99.90;;;;;;4786677;29;20550;-51
2024/03/16 08:46:20;;;;;;;11.53;10.93;;;13.20;99.90;;;;;;4811463;29;20221;-45
2024/03/16 08:48:46;;;;;;;10.90;10.23;;;13.30;99.90;;;;;;4786774;29;20562;-51
2024/03/16 08:51:12;;;;;;;11.17;10.67;;;13.40;99.90;;;;;;4812299;29;20201;-54
2024/03/16 08:53:38;;;;;;;11.27;10.67;;;13.60;1.00;;;;;;4804293;29;20462;-52
2024/03/16 08:56:06;;;;;;;11.33;10.73;;;13.70;99.90;;;;;;4811885;29;20206;-48
2024/03/16 08:58:32;;;;;;;11.20;10.50;;;13.80;99.90;;;;;;4806550;29;20233;-47
2024/03/16 09:00:58;;;;;;;11.13;10.57;;;13.90;99.90;;;;;;4812176;29;20487;-51
2024/03/16 09:03:24;;;;;;;10.83;10.33;;;14.00;99.90;;;;;;4804494;29;20930;-48
2024/03/16 09:05:49;;;;;;;10.60;10.10;;;14.00;99.90;;;;;;4806739;29;20208;-54
2024/03/16 09:08:15;;;;;;;12.27;11.67;;;14.10;99.90;;;;;;4811209;29;20192;-52
2024/03/16 09:10:41;;;;;;;19.87;18.57;;;14.10;99.90;;;;;;4812061;29;20190;-52
2024/03/16 09:13:06;;;;;;;18.13;17.17;;;13.90;1.00;;;;;;4810537;29;20240;-49
2024/03/16 09:15:33;;;;;;;18.50;17.50;;;13.50;99.90;;;;;;4794756;29;20250;-46
2024/03/16 09:17:59;;;;;;;18.37;17.30;;;13.20;1.00;;;;;;4806773;29;20736;-51
2024/03/16 09:20:25;;;;;;;18.20;17.20;;;13.00;1.00;;;;;;4811962;29;20423;-49
2024/03/16 09:22:52;;;;;;;18.83;17.83;;;12.90;1.00;;;;;;4811870;29;20272;-56
2024/03/16 09:25:20;;;;;;;18.00;17.10;;;13.00;1.00;;;;;;4811997;29;20277;-54
2024/03/16 09:27:46;;;;;;;17.80;16.80;;;12.90;1.00;;;;;;4808785;29;20463;-50
2024/03/16 09:30:14;;;;;;;17.53;16.53;;;13.00;1.00;;;;;;4790050;29;20454;-53
2024/03/16 09:32:39;;;;;;;17.90;16.70;;;13.10;1.00;;;;;;4799787;29;21382;-46
2024/03/16 09:35:07;;;;;;;16.23;15.30;;;13.30;1.00;;;;;;4800104;29;20927;-48
2024/03/16 09:37:32;;;;;;;17.17;16.23;;;13.40;1.00;;;;;;4811498;29;20262;-51
2024/03/16 09:39:58;;;;;;;16.70;15.80;;;13.50;1.00;;;;;;4790969;29;20455;-51
2024/03/16 09:42:24;;;;;;;16.50;15.60;;;13.70;1.00;;;;;;4807010;29;20187;-48
2024/03/16 09:44:49;;;;;;;15.80;15.00;;;13.90;1.00;;;;;;4807096;29;20990;-51
2024/03/16 09:47:16;;;;;;;14.43;13.50;;;14.10;99.90;;;;;;4811904;29;20236;-51
2024/03/16 09:49:42;;;;;;;13.70;12.90;;;14.40;1.00;;;;;;4809119;29;20190;-49
2024/03/16 09:52:13;;;;;;;13.40;12.70;;;15.00;99.90;;;;;;4811552;29;20435;-42
2024/03/16 09:54:43;;;;;;;12.20;11.50;;;15.70;99.90;;;;;;4799631;29;20452;-44
2024/03/16 09:57:14;;;;;;;11.10;10.60;;;16.20;99.90;;;;;;4811211;29;20600;-45
2024/03/16 09:59:50;;;;;;;11.70;11.20;;;16.30;99.90;;;;;;4804583;29;20423;-43
2024/03/16 10:02:19;;;;;;;10.97;10.47;;;16.30;99.90;;;;;;4805580;29;20513;-45
2024/03/16 10:04:46;;;;;;;12.30;11.70;;;16.40;99.90;;;;;;4799017;29;21023;-49
2024/03/16 10:07:12;;;;;;;12.40;11.70;;;16.40;99.90;;;;;;4809521;29;20475;-42
2024/03/16 10:09:51;;;;;;;11.70;11.20;;;16.40;99.90;;;;;;4803272;29;20438;-47
2024/03/16 10:12:16;;;;;;;10.33;9.93;;;16.50;99.90;;;;;;4811003;29;20197;-45
2024/03/16 10:14:42;;;;;;;11.00;10.50;;;16.20;97.70;;;;;;4805456;29;20483;-47
2024/03/16 10:17:07;;;;;;;11.37;10.87;;;15.70;98.10;;;;;;4811073;29;20274;-47
2024/03/16 10:19:35;;;;;;;10.63;10.23;;;15.80;99.50;;;;;;4800872;29;20267;-46
2024/03/16 10:22:05;;;;;;;10.80;10.30;;;15.70;99.10;;;;;;4811153;29;20217;-44
2024/03/16 10:24:31;;;;;;;12.10;11.40;;;15.50;98.20;;;;;;4808686;29;20423;-42
2024/03/16 10:26:57;;;;;;;11.37;10.77;;;15.30;98.30;;;;;;4805737;29;20929;-44
2024/03/16 10:29:24;;;;;;;10.97;10.37;;;15.30;98.90;;;;;;4809454;29;20514;-44
2024/03/16 10:31:50;;;;;;;11.20;10.70;;;15.30;99.10;;;;;;4803257;29;20248;-50
2024/03/16 10:34:16;;;;;;;11.50;10.87;;;15.20;98.90;;;;;;4788071;29;20935;-48
2024/03/16 10:36:42;;;;;;;11.70;11.20;;;15.00;98.20;;;;;;4802030;29;20436;-49
2024/03/16 10:39:09;;;;;;;10.97;10.47;;;14.90;98.40;;;;;;4803280;29;20198;-49
2024/03/16 10:41:36;;;;;;;11.43;10.53;;;15.10;98.50;;;;;;4804713;29;20802;-51
2024/03/16 10:44:04;;;;;;;13.50;12.90;;;15.00;99.60;;;;;;4799524;29;20497;-48
2024/03/16 10:46:30;;;;;;;15.50;14.80;;;14.80;99.90;;;;;;4807245;29;20483;-46
2024/03/16 10:48:57;;;;;;;15.13;14.43;;;14.50;99.90;;;;;;4808435;29;20479;-47
2024/03/16 10:51:23;;;;;;;14.80;14.00;;;14.20;99.90;;;;;;4795542;29;20758;-47
2024/03/16 10:53:50;;;;;;;14.47;13.77;;;14.20;99.90;;;;;;4810248;29;20435;-50
2024/03/16 10:56:17;;;;;;;13.33;12.73;;;14.20;99.90;;;;;;4810255;29;20838;-48
2024/03/16 10:58:43;;;;;;;12.30;11.80;;;14.40;99.90;;;;;;4810268;29;20427;-50
2024/03/16 11:01:18;;;;;;;11.90;11.30;;;14.70;99.90;;;;;;4807751;29;20447;-47
2024/03/16 11:03:43;;;;;;;11.53;11.03;;;14.90;99.90;;;;;;4805655;29;20449;-53
2024/03/16 11:06:21;;;;;;;11.10;10.70;;;15.20;99.90;;;;;;4809108;29;20511;-51
2024/03/16 11:08:51;;;;;;;9.70;9.20;;;15.70;99.40;;;;;;4807550;29;20697;-48
2024/03/16 11:11:21;;;;;;;10.50;10.10;;;16.20;97.10;;;;;;4803691;29;20419;-47
2024/03/16 11:13:58;;;;;;;10.10;9.70;;;16.40;95.30;;;;;;4813254;29;20550;-49
2024/03/16 11:16:33;;;;;;;10.53;10.03;;;16.70;96.00;;;;;;4803730;29;20564;-51
2024/03/16 11:19:00;;;;;;;11.20;10.70;;;16.90;94.00;;;;;;4814074;29;21186;-52
2024/03/16 11:21:26;;;;;;;10.30;9.90;;;17.10;93.30;;;;;;4804816;29;20541;-50
2024/03/16 11:23:53;;;;;;;11.40;10.90;;;17.20;92.40;;;;;;4814092;29;20427;-50
2024/03/16 11:26:28;;;;;;;11.00;10.50;;;17.10;92.10;;;;;;4805676;29;20481;-52
2024/03/16 11:29:27;;;;;;;10.83;10.23;;;17.40;92.10;;;;;;4813761;29;20447;-47
2024/03/16 11:31:59;;;;;;;11.90;11.40;;;17.50;91.50;;;;;;4798814;29;20451;-48
2024/03/16 11:34:25;;;;;;;10.63;10.23;;;17.60;90.60;;;;;;4803185;29;20942;-42
2024/03/16 11:36:55;;;;;;;11.10;10.53;;;17.70;91.30;;;;;;4791708;29;20431;-42
2024/03/16 11:39:29;;;;;;;11.13;10.43;;;18.00;88.30;;;;;;4804306;29;20454;-41
2024/03/16 11:42:00;;;;;;;11.10;10.47;;;18.60;88.70;;;;;;4811431;29;20454;-42
2024/03/16 11:44:28;;;;;;;10.63;10.13;;;19.50;84.00;;;;;;4812955;29;20434;-44
2024/03/16 11:46:53;;;;;;;10.43;10.03;;;20.50;79.80;;;;;;4812851;29;20481;-43
2024/03/16 11:49:21;;;;;;;10.10;9.70;;;20.50;74.30;;;;;;4813177;29;20943;-46
2024/03/16 11:51:48;;;;;;;9.80;9.40;;;20.40;69.70;;;;;;4804159;29;20190;-49
2024/03/16 11:54:15;;;;;;;10.63;10.13;;;20.40;67.40;;;;;;4813420;29;20799;-47
2024/03/16 11:56:44;;;;;;;11.27;10.57;;;20.90;69.30;;;;;;4804813;29;20438;-49
2024/03/16 11:59:16;;;;;;;11.37;10.87;;;20.70;64.60;;;;;;4813113;29;20439;-49
2024/03/16 12:01:59;;;;;;;11.53;11.00;;;20.00;66.30;;;;;;4800024;29;20527;-47
2024/03/16 12:04:26;;;;;;;10.27;9.87;;;19.50;68.40;;;;;;4810611;29;20452;-48
2024/03/16 12:06:56;;;;;;;11.17;10.57;;;18.90;69.80;;;;;;4807050;29;20510;-46
2024/03/16 12:09:31;;;;;;;11.67;11.17;;;18.00;74.20;;;;;;4813313;29;20914;-49
2024/03/16 12:11:58;;;;;;;11.27;10.87;;;17.30;83.20;;;;;;4808698;29;20463;-48
2024/03/16 12:14:24;;;;;;;11.90;11.40;;;16.30;1.00;;;;;;4792251;29;20521;-47
2024/03/16 12:16:50;;;;;;;16.80;16.10;;;15.40;97.50;;;;;;4792835;29;20439;-52
2024/03/16 12:19:16;;;;;;;17.00;16.20;;;14.60;99.90;;;;;;4794849;29;20202;-49
2024/03/16 12:21:46;;;;;;;16.40;15.50;;;13.80;99.90;;;;;;4793906;29;20736;-43
2024/03/16 12:24:13;;;;;;;16.50;15.80;;;13.30;99.90;;;;;;4791382;29;20443;-44
2024/03/16 12:26:49;;;;;;;16.37;15.57;;;12.90;99.90;;;;;;4778734;29;20484;-46
2024/03/16 12:29:16;;;;;;;15.03;14.33;;;12.50;1.00;;;;;;4783355;29;20492;-46
2024/03/16 12:31:43;;;;;;;14.43;13.83;;;12.30;1.00;;;;;;4785173;29;20567;-46
2024/03/16 12:34:13;;;;;;;14.10;13.33;;;12.10;1.00;;;;;;4786994;29;20452;-49